Time;durP1;ratioP1;P1;durP2;ratioP2;P2;SDS_P1;SDS_P2;PMS_P1;PMS_P2;Temp;Humidity;BMP_temperature;BMP_pressure;BME280_temperature;BME280_humidity;BME280_pressure;Samples;Min_cycle;Max_cycle;Signal;HPM_P1;HPM_P2
2022/10/22 00:00:11;;;;;;;45.83;22.88;;;;;;;;;;6285464;22;20017;-89
2022/10/22 00:02:40;;;;;;;41.22;22.08;;;;;;;;;;6309740;22;20045;-90
2022/10/22 00:05:10;;;;;;;39.60;22.88;;;;;;;;;;6282440;22;20023;-90
2022/10/22 00:07:51;;;;;;;38.83;22.88;;;;;;;;;;6309044;22;20398;-91
2022/10/22 00:10:33;;;;;;;42.83;23.13;;;;;;;;;;6309114;22;20516;-91
2022/10/22 00:13:10;;;;;;;42.60;23.63;;;;;;;;;;6308614;22;20532;-91
2022/10/22 00:15:42;;;;;;;37.25;22.25;;;;;;;;;;6285051;22;20018;-91
2022/10/22 00:18:15;;;;;;;29.63;20.83;;;;;;;;;;6256967;22;20024;-91
2022/10/22 00:23:12;;;;;;;34.28;19.48;;;;;;;;;;6274486;22;20044;-92
2022/10/22 00:25:53;;;;;;;25.90;19.48;;;;;;;;;;6218935;22;20022;-91
2022/10/22 00:28:24;;;;;;;32.25;21.10;;;;;;;;;;6245880;22;20025;-92
2022/10/22 00:30:59;;;;;;;40.28;21.35;;;;;;;;;;6249345;22;20026;-90
2022/10/22 00:33:29;;;;;;;30.23;20.35;;;;;;;;;;6280486;22;20026;-90
2022/10/22 00:36:02;;;;;;;38.47;22.13;;;;;;;;;;6283696;22;20019;-91
2022/10/22 00:38:29;;;;;;;42.87;23.83;;;;;;;;;;6306080;22;20030;-93
2022/10/22 00:41:17;;;;;;;33.25;21.05;;;;;;;;;;6282293;22;20254;-92
2022/10/22 00:43:54;;;;;;;36.97;21.48;;;;;;;;;;6305657;22;20018;-91
2022/10/22 00:46:29;;;;;;;38.90;21.70;;;;;;;;;;6280995;22;20010;-91
2022/10/22 00:48:57;;;;;;;40.83;19.73;;;;;;;;;;6279687;22;20023;-91
2022/10/22 00:51:28;;;;;;;33.70;19.13;;;;;;;;;;6281533;22;20347;-91
2022/10/22 00:54:06;;;;;;;31.00;19.00;;;;;;;;;;6307197;22;20079;-90
2022/10/22 00:56:48;;;;;;;32.78;18.27;;;;;;;;;;6283247;22;20015;-91
2022/10/22 01:02:03;;;;;;;33.78;19.30;;;;;;;;;;6350385;22;20052;-92
2022/10/22 01:08:43;;;;;;;31.55;19.42;;;;;;;;;;6271164;22;20091;-91
2022/10/22 01:11:38;;;;;;;35.15;19.90;;;;;;;;;;6195631;22;20023;-91
2022/10/22 01:14:23;;;;;;;38.70;19.38;;;;;;;;;;6252188;22;20123;-91
2022/10/22 01:17:08;;;;;;;31.88;19.20;;;;;;;;;;6257627;22;20019;-91
2022/10/22 01:19:59;;;;;;;33.53;19.27;;;;;;;;;;6253919;22;20023;-91
2022/10/22 01:22:57;;;;;;;28.45;18.08;;;;;;;;;;6253173;22;20055;-90
2022/10/22 01:25:45;;;;;;;29.38;17.25;;;;;;;;;;6244472;22;20026;-91
2022/10/22 01:28:30;;;;;;;29.60;18.85;;;;;;;;;;6245443;22;20055;-91
2022/10/22 01:31:14;;;;;;;31.38;18.23;;;;;;;;;;6244286;22;20026;-91
2022/10/22 01:33:54;;;;;;;29.25;17.40;;;;;;;;;;6246479;22;20475;-91
2022/10/22 01:36:23;;;;;;;33.78;18.42;;;;;;;;;;6269871;22;20051;-91
2022/10/22 01:38:50;;;;;;;31.90;17.60;;;;;;;;;;6221867;22;20403;-92
2022/10/22 01:44:42;;;;;;;26.02;16.45;;;;;;;;;;6334744;22;20038;-93
2022/10/22 01:47:24;;;;;;;31.67;17.92;;;;;;;;;;6161418;23;20024;-94
2022/10/22 01:50:09;;;;;;;24.98;16.70;;;;;;;;;;6261651;22;20021;-91
2022/10/22 01:52:35;;;;;;;24.40;16.17;;;;;;;;;;6282287;22;20094;-93
2022/10/22 01:58:17;;;;;;;27.58;15.70;;;;;;;;;;6309376;22;20046;-92
2022/10/22 02:01:18;;;;;;;30.20;15.55;;;;;;;;;;6286452;22;20022;-92
2022/10/22 02:04:01;;;;;;;22.25;14.50;;;;;;;;;;6243874;22;20093;-93
2022/10/22 02:06:48;;;;;;;22.80;14.75;;;;;;;;;;6310455;22;20023;-94
2022/10/22 02:09:16;;;;;;;23.42;13.52;;;;;;;;;;6283579;22;20019;-95
2022/10/22 02:11:42;;;;;;;27.10;15.43;;;;;;;;;;6282766;22;20019;-94
2022/10/22 02:14:11;;;;;;;22.80;14.55;;;;;;;;;;6310047;22;20373;-94
2022/10/22 02:16:45;;;;;;;28.48;14.25;;;;;;;;;;6285497;22;20563;-93
2022/10/22 02:19:46;;;;;;;23.67;14.60;;;;;;;;;;6285355;22;20402;-92
2022/10/22 02:22:25;;;;;;;24.77;14.55;;;;;;;;;;6287363;22;20030;-94
2022/10/22 02:25:05;;;;;;;21.95;14.07;;;;;;;;;;6284071;22;20019;-92
2022/10/22 02:28:11;;;;;;;18.63;13.68;;;;;;;;;;6284693;22;20482;-94
2022/10/22 02:30:38;;;;;;;21.95;14.27;;;;;;;;;;6314067;22;20078;-94
2022/10/22 02:33:36;;;;;;;23.38;13.80;;;;;;;;;;6290629;22;20445;-91
2022/10/22 02:36:17;;;;;;;20.08;13.82;;;;;;;;;;6296107;22;20023;-92
2022/10/22 02:38:44;;;;;;;18.92;13.25;;;;;;;;;;6284305;22;20014;-92
2022/10/22 02:41:26;;;;;;;26.15;12.98;;;;;;;;;;6286620;22;20029;-94
2022/10/22 02:44:08;;;;;;;20.73;13.65;;;;;;;;;;6284344;22;20055;-93
2022/10/22 02:47:30;;;;;;;23.85;13.23;;;12.00;99.90;;;;;;6284214;22;20022;-93
2022/10/22 02:49:56;;;;;;;26.85;13.63;;;;;;;;;;6284582;22;20511;-94
2022/10/22 02:52:28;;;;;;;22.25;13.75;;;;;;;;;;6285316;22;20454;-92
2022/10/22 02:54:57;;;;;;;17.60;12.43;;;;;;;;;;6285394;22;20019;-92
2022/10/22 02:57:42;;;;;;;21.70;13.90;;;;;;;;;;6257191;22;20018;-91
2022/10/22 03:00:09;;;;;;;18.85;13.05;;;;;;;;;;6310543;22;20097;-93
2022/10/22 03:02:44;;;;;;;22.88;14.27;;;;;;;;;;6258859;22;20021;-91
2022/10/22 03:05:10;;;;;;;23.23;14.18;;;;;;;;;;6310078;22;20014;-92
2022/10/22 03:07:52;;;;;;;21.73;13.45;;;;;;;;;;6283519;22;20101;-92
2022/10/22 03:10:36;;;;;;;26.77;14.93;;;;;;;;;;6258964;22;20026;-92
2022/10/22 03:13:16;;;;;;;19.23;13.10;;;;;;;;;;6284019;22;20029;-92
2022/10/22 03:15:57;;;;;;;20.00;12.77;;;;;;;;;;6285177;22;20030;-93
2022/10/22 03:18:42;;;;;;;20.27;12.88;;;;;;;;;;6283454;22;20109;-92
2022/10/22 03:21:27;;;;;;;21.42;11.80;;;;;;;;;;6284953;22;20019;-94
2022/10/22 03:23:54;;;;;;;23.17;13.48;;;;;;;;;;6280860;22;20030;-91
2022/10/22 03:29:53;;;;;;;21.05;12.90;;;;;;;;;;6311247;22;20023;-92
2022/10/22 03:32:24;;;;;;;20.75;13.52;;;;;;;;;;6280801;22;20107;-91
2022/10/22 03:35:15;;;;;;;25.50;13.35;;;;;;;;;;6279074;22;20026;-92
2022/10/22 03:38:31;;;;;;;20.15;13.85;;;11.90;99.90;;;;;;6279405;22;20022;-92
2022/10/22 03:41:25;;;;;;;20.85;13.35;;;;;;;;;;6305803;22;20019;-92
2022/10/22 03:44:17;;;;;;;24.50;12.60;;;;;;;;;;6280485;22;20153;-94
2022/10/22 03:47:17;;;;;;;20.52;13.60;;;;;;;;;;6277569;22;20019;-92
2022/10/22 03:52:53;;;;;;;22.05;13.60;;;;;;;;;;6332820;22;20053;-93
2022/10/22 03:55:19;;;;;;;23.92;13.38;;;;;;;;;;6308516;22;20055;-92
2022/10/22 03:57:47;;;;;;;21.95;13.73;;;;;;;;;;6309971;22;20093;-93
2022/10/22 04:00:32;;;;;;;26.25;14.80;;;;;;;;;;6284214;22;20026;-93
2022/10/22 04:02:59;;;;;;;24.17;15.10;;;;;;;;;;6288290;22;20038;-92
2022/10/22 04:05:36;;;;;;;29.55;15.30;;;;;;;;;;6313008;22;20054;-93
2022/10/22 04:08:18;;;;;;;24.88;15.35;;;;;;;;;;6259027;22;20163;-93
2022/10/22 04:10:52;;;;;;;24.77;15.25;;;;;;;;;;6283682;22;20027;-94
2022/10/22 04:13:28;;;;;;;26.38;15.20;;;;;;;;;;6283323;22;20015;-92
2022/10/22 04:16:17;;;;;;;24.17;16.17;;;;;;;;;;6283254;22;20066;-94
2022/10/22 04:18:46;;;;;;;34.47;16.90;;;;;;;;;;6283330;22;20015;-92
2022/10/22 04:21:34;;;;;;;32.15;17.95;;;;;;;;;;6283193;22;20025;-92
2022/10/22 04:24:03;;;;;;;35.75;18.98;;;;;;;;;;6307398;22;20025;-92
2022/10/22 04:26:29;;;;;;;32.40;19.67;;;;;;;;;;6257948;22;20474;-93
2022/10/22 04:28:56;;;;;;;38.00;19.60;;;;;;;;;;6276945;22;20049;-92
2022/10/22 04:31:25;;;;;;;30.83;20.13;;;;;;;;;;6248162;22;20026;-93
2022/10/22 04:33:58;;;;;;;33.70;18.52;;;;;;;;;;6276520;22;20153;-93
2022/10/22 04:36:24;;;;;;;37.63;19.60;;;;;;;;;;6299578;22;20024;-93
2022/10/22 04:39:05;;;;;;;33.05;18.52;;;;;;;;;;6277133;22;20122;-93
2022/10/22 04:41:32;;;;;;;36.17;19.38;;;;;;;;;;6275019;22;20019;-92
2022/10/22 04:46:51;;;;;;;30.05;18.63;;;;;;;;;;6333607;22;20030;-93
2022/10/22 04:49:35;;;;;;;34.15;20.92;;;;;;;;;;6257346;22;20068;-92
2022/10/22 04:52:01;;;;;;;35.25;19.70;;;;;;;;;;6284016;22;20030;-93
2022/10/22 04:54:27;;;;;;;37.40;20.58;;;;;;;;;;6307635;22;20126;-93
2022/10/22 04:57:08;;;;;;;37.10;20.60;;;;;;;;;;6256812;22;20018;-92
2022/10/22 04:59:34;;;;;;;35.90;20.45;;;;;;;;;;6260843;22;20094;-92
2022/10/22 05:02:12;;;;;;;34.00;21.20;;;;;;;;;;6284284;22;20015;-91
2022/10/22 05:04:57;;;;;;;34.85;19.27;;;;;;;;;;6257932;22;20026;-92
2022/10/22 05:10:14;;;;;;;31.63;19.80;;;;;;;;;;6288253;22;20021;-91
2022/10/22 05:12:42;;;;;;;33.57;19.53;;;;;;;;;;6311538;22;20405;-92
2022/10/22 05:15:21;;;;;;;38.38;21.15;;;;;;;;;;6287339;22;20038;-92
2022/10/22 05:17:47;;;;;;;33.75;19.83;;;;;;;;;;6283699;22;20322;-88
2022/10/22 05:20:13;;;;;;;42.20;20.80;;;;;;;;;;6335001;22;20022;-87
2022/10/22 05:22:42;;;;;;;35.72;20.08;;;;;;;;;;6255378;22;20023;-88
2022/10/22 05:25:16;;;;;;;33.45;20.17;;;;;;;;;;6334814;22;20015;-87
2022/10/22 05:27:48;;;;;;;36.35;21.52;;;;;;;;;;6335090;22;20015;-87
2022/10/22 05:30:14;;;;;;;33.45;20.83;;;;;;;;;;6280139;22;20019;-88
2022/10/22 05:32:40;;;;;;;37.13;21.48;;;;;;;;;;6306416;22;20025;-87
2022/10/22 05:35:07;;;;;;;41.42;21.73;;;;;;;;;;6307225;22;20011;-87
2022/10/22 05:37:41;;;;;;;36.05;21.13;;;;;;;;;;6280654;22;20047;-87
2022/10/22 05:40:09;;;;;;;32.17;20.08;;;;;;;;;;6335515;22;20027;-87
2022/10/22 05:42:50;;;;;;;38.67;21.30;;;;;;;;;;6333372;22;20018;-87
2022/10/22 05:45:16;;;;;;;34.38;20.15;;;;;;;;;;6301512;22;20026;-88
2022/10/22 05:47:45;;;;;;;35.10;20.45;;;;;;;;;;6299860;22;20024;-87
2022/10/22 05:50:14;;;;;;;41.33;19.75;;;;;;;;;;6276442;22;20019;-87
2022/10/22 05:52:44;;;;;;;45.50;21.45;;;;;;;;;;6305695;22;20019;-88
2022/10/22 05:55:16;;;;;;;38.00;20.45;;;;;;;;;;6313324;22;20110;-86
2022/10/22 05:57:43;;;;;;;44.28;20.85;;;;;;;;;;6289416;22;20019;-88
2022/10/22 06:00:09;;;;;;;49.95;22.42;;;;;;;;;;6302647;22;20027;-87
2022/10/22 06:02:42;;;;;;;40.00;20.95;;;;;;;;;;6274839;22;20015;-87
2022/10/22 06:05:08;;;;;;;42.75;22.33;;;;;;;;;;6303116;22;20058;-88
2022/10/22 06:07:34;;;;;;;35.03;20.08;;;;;;;;;;6249036;22;20443;-87
2022/10/22 06:10:01;;;;;;;34.55;18.77;;;;;;;;;;6302458;22;20011;-88
2022/10/22 06:12:27;;;;;;;32.60;18.67;;;;;;;;;;6302334;22;20463;-90
2022/10/22 06:14:53;;;;;;;34.28;19.85;;;;;;;;;;6304010;22;20385;-86
2022/10/22 06:17:25;;;;;;;38.75;20.83;;;;;;;;;;6303182;22;20051;-87
2022/10/22 06:20:01;;;;;;;33.70;19.30;;;;;;;;;;6302588;22;20064;-87
2022/10/22 06:22:36;;;;;;;34.85;19.25;;;;;;;;;;6277488;22;20339;-88
2022/10/22 06:25:07;;;;;;;34.53;19.27;;;;;;;;;;6306040;22;20031;-88
2022/10/22 06:27:36;;;;;;;30.77;19.63;;;;;;;;;;6302655;22;20482;-88
2022/10/22 06:30:03;;;;;;;34.42;19.40;;;;;;;;;;6303209;22;20019;-90
2022/10/22 06:32:29;;;;;;;28.35;18.60;;;;;;;;;;6296426;22;20027;-88
2022/10/22 06:34:56;;;;;;;35.35;19.80;;;;;;;;;;6273096;22;20227;-88
2022/10/22 06:37:22;;;;;;;38.30;19.73;;;;;;;;;;6297868;22;20018;-88
2022/10/22 06:39:48;;;;;;;46.42;20.50;;;;;;;;;;6302391;22;20111;-88
2022/10/22 06:42:14;;;;;;;31.35;19.00;;;;;;;;;;6297132;22;20016;-88
2022/10/22 06:44:40;;;;;;;33.00;19.95;;;;;;;;;;6248441;22;20069;-89
2022/10/22 06:47:06;;;;;;;34.90;19.63;;;;;;;;;;6298852;22;20015;-88
2022/10/22 06:49:38;;;;;;;31.90;19.08;;;;;;;;;;6300924;22;20015;-86
2022/10/22 06:52:10;;;;;;;33.42;18.98;;;;;;;;;;6296587;22;20034;-87
2022/10/22 06:54:37;;;;;;;32.05;19.08;;;;;;;;;;6300844;22;20356;-89
2022/10/22 06:57:09;;;;;;;36.15;19.17;;;;;;;;;;6296892;22;20090;-85
2022/10/22 06:59:35;;;;;;;32.78;18.23;;;;;;;;;;6273859;22;20390;-90
2022/10/22 07:02:01;;;;;;;33.38;19.50;;;;;;;;;;6299301;22;20131;-92
2022/10/22 07:04:27;;;;;;;34.90;18.65;;;;;;;;;;6273301;22;20027;-90
2022/10/22 07:07:05;;;;;;;33.47;18.90;;;;;;;;;;6272213;22;20023;-86
2022/10/22 07:09:32;;;;;;;35.10;18.60;;;;;;;;;;6273902;22;20026;-88
2022/10/22 07:11:59;;;;;;;27.70;18.83;;;;;;;;;;6274403;22;20054;-88
2022/10/22 07:14:25;;;;;;;34.85;17.77;;;;;;;;;;6299364;22;20015;-88
2022/10/22 07:16:51;;;;;;;32.30;17.77;;;;;;;;;;6301060;22;20337;-88
2022/10/22 07:19:17;;;;;;;32.60;17.70;;;;;;;;;;6300884;22;20112;-91
2022/10/22 07:21:43;;;;;;;27.52;17.83;;;;;;;;;;6301958;22;20054;-89
2022/10/22 07:24:09;;;;;;;27.30;16.92;;;;;;;;;;6299494;22;20716;-89
2022/10/22 07:26:35;;;;;;;28.27;17.50;;;;;;;;;;6300544;22;20011;-86
2022/10/22 07:29:02;;;;;;;31.50;17.42;;;;;;;;;;6300466;22;20058;-89
2022/10/22 07:31:29;;;;;;;31.20;16.00;;;;;;;;;;6334301;22;20091;-89
2022/10/22 07:34:01;;;;;;;34.80;16.90;;;;;;;;;;6334712;22;20466;-87
2022/10/22 07:36:33;;;;;;;24.33;14.48;;;;;;;;;;6283311;22;20030;-90
2022/10/22 07:39:00;;;;;;;29.92;16.70;;;;;;;;;;6305353;22;20023;-92
2022/10/22 07:41:35;;;;;;;25.20;14.50;;;;;;;;;;6306955;22;20019;-88
2022/10/22 07:44:01;;;;;;;27.83;15.90;;;;;;;;;;6253728;22;20448;-89
2022/10/22 07:46:34;;;;;;;31.35;15.82;;;;;;;;;;6279981;22;20025;-89
2022/10/22 07:49:09;;;;;;;28.63;16.10;;;;;;;;;;6303658;22;20086;-89
2022/10/22 07:51:41;;;;;;;25.60;13.73;;;;;;;;;;6278466;22;20031;-89
2022/10/22 07:54:19;;;;;;;23.23;14.57;;;;;;;;;;6331709;22;20018;-88
2022/10/22 07:56:52;;;;;;;25.23;13.57;;;;;;;;;;6277692;22;20022;-88
2022/10/22 07:59:18;;;;;;;22.33;12.60;;;;;;;;;;6253696;22;20050;-86
2022/10/22 08:01:45;;;;;;;26.83;12.73;;;;;;;;;;6331666;22;20011;-85
2022/10/22 08:04:12;;;;;;;23.98;12.55;;;;;;;;;;6332079;22;20019;-88
2022/10/22 08:06:38;;;;;;;18.83;10.82;;;;;;;;;;6279219;22;20067;-88
2022/10/22 08:09:04;;;;;;;22.08;11.70;;;;;;;;;;6301990;22;20023;-86
2022/10/22 08:11:32;;;;;;;20.77;11.50;;;;;;;;;;6305859;22;20408;-88
2022/10/22 08:13:58;;;;;;;17.60;11.18;;;;;;;;;;6330807;22;20374;-87
2022/10/22 08:16:28;;;;;;;23.10;11.88;;;;;;;;;;6311909;22;20242;-88
2022/10/22 08:19:01;;;;;;;19.95;10.90;;;;;;;;;;6295980;22;20045;-89
2022/10/22 08:21:28;;;;;;;20.13;11.20;;;;;;;;;;6321683;22;20022;-87
2022/10/22 08:23:54;;;;;;;18.92;10.55;;;;;;;;;;6307849;22;20033;-88
2022/10/22 08:26:20;;;;;;;27.27;11.57;;;;;;;;;;6333588;22;20089;-86
2022/10/22 08:28:46;;;;;;;21.25;10.30;;;;;;;;;;6330448;22;20324;-89
2022/10/22 08:31:12;;;;;;;20.23;10.85;;;;;;;;;;6300796;22;20053;-86
2022/10/22 08:33:39;;;;;;;18.30;10.45;;;;;;;;;;6329427;22;20348;-86
2022/10/22 08:36:06;;;;;;;19.65;10.13;;;;;;;;;;6328401;22;20026;-85
2022/10/22 08:38:34;;;;;;;24.38;10.63;;;;;;;;;;6302140;22;20317;-85
2022/10/22 08:41:08;;;;;;;13.40;8.85;;;;;;;;;;6327746;22;20254;-86
2022/10/22 08:43:44;;;;;;;19.02;9.45;;;;;;;;;;6278368;22;20397;-85
2022/10/22 08:46:28;;;;;;;17.05;10.15;;;;;;;;;;6328478;22;20022;-87
2022/10/22 08:48:56;;;;;;;17.42;9.73;;;;;;;;;;6331607;22;20065;-84
2022/10/22 08:51:41;;;;;;;15.80;8.73;;;;;;;;;;6329057;22;20050;-86
2022/10/22 08:54:17;;;;;;;20.35;9.95;;;;;;;;;;6277356;22;20022;-86
2022/10/22 08:57:01;;;;;;;18.75;9.10;;;;;;;;;;6330527;22;20026;-85
2022/10/22 09:02:52;;;;;;;21.80;8.43;;;;;;;;;;6333194;22;20129;-86
2022/10/22 09:05:30;;;;;;;18.08;9.15;;;;;;;;;;6331478;22;20326;-86
2022/10/22 09:08:10;;;;;;;20.25;9.23;;;;;;;;;;6331534;22;20019;-86
2022/10/22 09:10:46;;;;;;;18.50;9.18;;;;;;;;;;6328558;22;20015;-86
2022/10/22 09:13:15;;;;;;;27.23;9.10;;;;;;;;;;6329405;22;20073;-86
2022/10/22 09:15:41;;;;;;;13.85;7.80;;;;;;;;;;6275746;22;20022;-86
2022/10/22 09:18:26;;;;;;;17.88;7.13;;;;;;;;;;6331055;22;20068;-86
2022/10/22 09:21:10;;;;;;;15.13;7.18;;;;;;;;;;6330269;22;20011;-86
2022/10/22 09:23:55;;;;;;;18.48;6.78;;;;;;;;;;6306595;22;20019;-85
2022/10/22 09:26:21;;;;;;;17.52;7.45;;;;;;;;;;6306719;22;20022;-83
2022/10/22 09:28:51;;;;;;;11.40;6.68;;;;;;;;;;6335866;22;20022;-87
2022/10/22 09:31:26;;;;;;;14.63;6.32;;;;;;;;;;6330063;22;20015;-86
2022/10/22 09:34:06;;;;;;;14.15;6.15;;;;;;;;;;6329290;22;20389;-87
2022/10/22 09:36:37;;;;;;;13.40;6.88;;;;;;;;;;6330654;22;20030;-85
2022/10/22 09:39:22;;;;;;;15.27;5.70;;;;;;;;;;6330445;22;20532;-89
2022/10/22 09:41:48;;;;;;;15.43;6.18;;;;;;;;;;6301361;22;20359;-87
2022/10/22 09:44:14;;;;;;;19.50;6.22;;;;;;;;;;6339207;22;20019;-89
2022/10/22 09:46:47;;;;;;;18.05;6.53;;;;;;;;;;6343266;22;20021;-89
2022/10/22 09:49:16;;;;;;;17.92;5.40;;;;;;;;;;6316566;22;20022;-88
2022/10/22 09:51:59;;;;;;;14.43;5.40;;;;;;;;;;6339736;22;20046;-87
2022/10/22 09:54:31;;;;;;;11.13;5.28;;;;;;;;;;6316111;22;20070;-88
2022/10/22 09:57:16;;;;;;;10.80;4.95;;;;;;;;;;6313578;22;20026;-87
2022/10/22 09:59:43;;;;;;;13.82;4.93;;;;;;;;;;6316215;22;20015;-88
2022/10/22 10:02:10;;;;;;;15.23;4.90;;;;;;;;;;6342173;22;20018;-87
2022/10/22 10:04:53;;;;;;;12.98;4.75;;;;;;;;;;6315542;22;20085;-88
2022/10/22 10:07:32;;;;;;;18.63;5.00;;;;;;;;;;6314990;22;20018;-86
2022/10/22 10:09:58;;;;;;;10.82;5.03;;;;;;;;;;6316744;22;20093;-87
2022/10/22 10:13:01;;;;;;;16.88;4.95;;;;;;;;;;6314802;22;20023;-89
2022/10/22 10:19:33;;;;;;;11.90;4.40;;;;;;;;;;6279280;22;20026;-87
2022/10/22 10:22:03;;;;;;;14.70;4.20;;;;;;;;;;6279498;22;20030;-87
2022/10/22 10:24:38;;;;;;;22.75;7.32;;;;;;;;;;6279257;22;20667;-87
2022/10/22 10:27:07;;;;;;;11.05;4.30;;;;;;;;;;6280500;22;20089;-88
2022/10/22 10:30:12;;;;;;;10.63;5.07;;;;;;;;;;6279155;22;20031;-89
2022/10/22 10:33:10;;;;;;;11.23;4.03;;;;;;;;;;6277803;22;20030;-86
2022/10/22 10:36:08;;;;;;;10.43;4.07;;;;;;;;;;6305181;22;20030;-87
2022/10/22 10:38:37;;;;;;;12.23;4.32;;;;;;;;;;6303795;22;20061;-83
2022/10/22 10:41:18;;;;;;;11.60;3.78;;;;;;;;;;6272308;22;20338;-85
2022/10/22 10:44:09;;;;;;;13.25;3.67;;;16.60;99.90;;;;;;6259219;22;20081;-84
2022/10/22 10:46:58;;;;;;;13.05;4.10;;;;;;;;;;6291454;22;20019;-86
2022/10/22 10:53:08;;;;;;;17.10;4.65;;;;;;;;;;6285454;22;20107;-85
2022/10/22 10:55:49;;;;;;;11.00;4.28;;;;;;;;;;6304857;22;20024;-87
2022/10/22 10:58:51;;;;;;;12.27;4.45;;;;;;;;;;6279857;22;20031;-85
2022/10/22 11:02:10;;;;;;;20.88;4.53;;;;;;;;;;6279695;22;20020;-87
2022/10/22 11:04:51;;;;;;;12.40;4.30;;;;;;;;;;6281217;22;20023;-88
2022/10/22 11:07:36;;;;;;;11.35;4.32;;;;;;;;;;6286137;22;20020;-84
2022/10/22 11:10:06;;;;;;;9.38;4.40;;;;;;;;;;6293408;22;20103;-82
2022/10/22 11:15:35;;;;;;;15.48;6.47;;;;;;;;;;6228587;22;20523;-82
2022/10/22 11:18:04;;;;;;;13.85;5.45;;;;;;;;;;6311862;22;20015;-83
2022/10/22 11:21:08;;;;;;;13.52;5.35;;;;;;;;;;6311820;22;20019;-85
2022/10/22 11:23:34;;;;;;;12.88;6.10;;;;;;;;;;6287875;22;20023;-84
2022/10/22 11:26:00;;;;;;;14.63;5.53;;;;;;;;;;6311451;22;20026;-83
2022/10/22 11:28:42;;;;;;;12.38;5.50;;;;;;;;;;6310897;22;20080;-85
2022/10/22 11:31:13;;;;;;;15.75;5.90;;;;;;;;;;6313252;22;20019;-86
2022/10/22 11:33:44;;;;;;;10.32;5.25;;;;;;;;;;6312422;22;20011;-89
2022/10/22 11:36:10;;;;;;;14.85;5.40;;;;;;;;;;6313531;22;20352;-84
2022/10/22 11:38:37;;;;;;;13.82;5.68;;;;;;;;;;6310515;22;20072;-83
2022/10/22 11:41:11;;;;;;;14.98;5.40;;;;;;;;;;6312580;22;20015;-82
2022/10/22 11:43:58;;;;;;;15.77;5.18;;;;;;;;;;6311703;22;20019;-86
2022/10/22 11:46:44;;;;;;;10.90;5.18;;;;;;;;;;6313655;22;20016;-83
2022/10/22 11:49:13;;;;;;;13.70;5.50;;;;;;;;;;6314040;22;20034;-85
2022/10/22 11:51:40;;;;;;;11.27;4.95;;;;;;;;;;6310070;22;20023;-87
2022/10/22 11:54:25;;;;;;;17.77;6.13;;;;;;;;;;6313864;22;20494;-82
2022/10/22 11:56:52;;;;;;;11.15;4.95;;;;;;;;;;6311592;22;20090;-82
2022/10/22 11:59:37;;;;;;;13.50;4.88;;;;;;;;;;6310742;22;20107;-83
2022/10/22 12:02:22;;;;;;;12.40;5.80;;;;;;;;;;6311023;22;20114;-82
2022/10/22 12:04:48;;;;;;;14.88;6.65;;;;;;;;;;6310175;22;20023;-84
2022/10/22 12:07:32;;;;;;;11.52;5.07;;;;;;;;;;6286561;22;20102;-83
2022/10/22 12:09:58;;;;;;;7.80;4.80;;;;;;;;;;6311841;22;20030;-84
2022/10/22 12:12:24;;;;;;;13.40;5.15;;;;;;;;;;6310896;22;20102;-84
2022/10/22 12:14:52;;;;;;;9.95;4.47;;;;;;;;;;6286107;22;20057;-87
2022/10/22 12:17:38;;;;;;;12.48;5.65;;;;;;;;;;6328627;22;20021;-84
2022/10/22 12:20:07;;;;;;;18.95;5.80;;;;;;;;;;6317146;22;20085;-84
2022/10/22 12:22:46;;;;;;;12.40;5.55;;;;;;;;;;6342993;22;20019;-84
2022/10/22 12:25:21;;;;;;;16.45;6.15;;;;;;;;;;6330826;22;20097;-83
2022/10/22 12:27:53;;;;;;;11.65;5.90;;;;;;;;;;6302445;22;20026;-84
2022/10/22 12:30:33;;;;;;;11.30;5.38;;;;;;;;;;6302085;22;20064;-84
2022/10/22 12:33:02;;;;;;;17.45;6.05;;;;;;;;;;6331161;22;20030;-83
2022/10/22 12:35:31;;;;;;;19.10;6.00;;;;;;;;;;6251224;22;20073;-85
2022/10/22 12:38:00;;;;;;;11.82;6.30;;;;;;;;;;6331711;22;20343;-84
2022/10/22 12:40:46;;;;;;;13.55;6.13;;;;;;;;;;6269970;22;20070;-85
2022/10/22 12:43:12;;;;;;;13.38;5.78;;;;;;;;;;6265114;22;20022;-83
2022/10/22 12:45:38;;;;;;;11.60;5.90;;;;;;;;;;6265253;22;20141;-85
2022/10/22 12:48:06;;;;;;;14.02;5.63;;;;;;;;;;6265172;22;20143;-84
2022/10/22 12:50:36;;;;;;;11.13;6.25;;;;;;;;;;6265936;22;20053;-82
2022/10/22 12:53:02;;;;;;;11.82;5.53;;;;;;;;;;6271611;22;20015;-81
2022/10/22 12:55:31;;;;;;;11.65;5.93;;;;;;;;;;6347997;22;20401;-82
2022/10/22 12:57:57;;;;;;;10.57;4.82;;;;;;;;;;6348686;22;20014;-82
2022/10/22 13:00:28;;;;;;;14.13;6.18;;;;;;;;;;6344145;22;20093;-83
2022/10/22 13:02:54;;;;;;;15.25;6.35;;;;;;;;;;6334712;22;20090;-82
2022/10/22 13:05:20;;;;;;;13.07;5.93;;;;;;;;;;6332467;22;20026;-82
2022/10/22 13:07:48;;;;;;;12.05;6.28;;;;;;;;;;6334396;22;20007;-85
2022/10/22 13:10:17;;;;;;;11.98;4.75;;;;;;;;;;6305741;22;20019;-85
2022/10/22 13:12:48;;;;;;;7.25;3.50;;;;;;;;;;6314187;22;20055;-83
2022/10/22 13:15:20;;;;;;;9.30;4.38;;;;;;;;;;6345351;22;20070;-84
2022/10/22 13:18:01;;;;;;;11.95;5.88;;;;;;;;;;6337670;22;20019;-86
2022/10/22 13:20:27;;;;;;;19.20;6.45;;;;;;;;;;6308766;22;20414;-86
2022/10/22 13:22:59;;;;;;;18.55;7.50;;;;;;;;;;6335005;22;20351;-85
2022/10/22 13:25:32;;;;;;;20.20;8.25;;;;;;;;;;6307624;22;20072;-86
2022/10/22 13:27:58;;;;;;;24.90;9.50;;;;;;;;;;6333906;22;20331;-87
2022/10/22 13:30:27;;;;;;;20.45;8.88;;;;;;;;;;6282520;22;20015;-87
2022/10/22 13:32:58;;;;;;;22.92;7.38;;;;;;;;;;6334095;22;20017;-86
2022/10/22 13:35:26;;;;;;;18.92;6.82;;;;;;;;;;6337142;22;20042;-87
2022/10/22 13:37:52;;;;;;;16.98;6.50;;;;;;;;;;6309483;22;20026;-85
2022/10/22 13:40:18;;;;;;;16.52;5.80;;;;;;;;;;6337324;22;20443;-85
2022/10/22 13:42:44;;;;;;;17.38;6.70;;;;;;;;;;6306845;22;21255;-86
2022/10/22 13:45:11;;;;;;;12.52;5.13;;;;;;;;;;6307700;22;20022;-88
2022/10/22 13:47:37;;;;;;;12.52;4.53;;;;;;;;;;6332797;22;20042;-88
2022/10/22 13:50:04;;;;;;;14.38;4.18;;;;;;;;;;6255246;22;20044;-89
2022/10/22 13:52:38;;;;;;;16.50;4.03;;;;;;;;;;6304869;22;20023;-89
2022/10/22 13:55:31;;;;;;;14.63;3.08;;;;;;;;;;6332929;22;21096;-86
2022/10/22 13:58:09;;;;;;;15.90;3.45;;;;;;;;;;6332140;22;20025;-87
2022/10/22 14:00:37;;;;;;;6.10;2.50;;;;;;;;;;6330688;22;20021;-86
2022/10/22 14:03:03;;;;;;;7.68;1.85;;;;;;;;;;6332417;22;20050;-85
2022/10/22 14:05:31;;;;;;;7.70;2.05;;;;;;;;;;6330441;22;20047;-85
2022/10/22 14:08:11;;;;;;;6.97;1.65;;;;;;;;;;6277895;22;20446;-86
2022/10/22 14:10:46;;;;;;;9.82;1.98;;;;;;;;;;6329623;22;20079;-86
2022/10/22 14:13:16;;;;;;;6.85;1.83;;;;;;;;;;6275480;22;20030;-85
2022/10/22 14:15:44;;;;;;;6.40;2.75;;;;;;;;;;6301473;22;20198;-85
2022/10/22 14:18:12;;;;;;;4.80;1.73;;;;;;;;;;6329798;22;20460;-86
2022/10/22 14:20:40;;;;;;;10.05;2.40;;;;;;;;;;6331031;22;20014;-85
2022/10/22 14:23:14;;;;;;;8.18;2.50;;;;;;;;;;6302489;22;20015;-86
2022/10/22 14:25:40;;;;;;;9.23;2.67;;;;;;;;;;6301462;22;20023;-86
2022/10/22 14:28:08;;;;;;;8.25;2.92;;;;;;;;;;6275036;22;20019;-85
2022/10/22 14:30:34;;;;;;;12.32;3.53;;;;;;;;;;6329297;22;20023;-87
2022/10/22 14:33:00;;;;;;;9.32;2.22;;;;;;;;;;6275466;22;20168;-85
2022/10/22 14:35:26;;;;;;;14.57;2.47;;;;;;;;;;6333569;22;20021;-86
2022/10/22 14:37:52;;;;;;;15.77;3.63;;;;;;;;;;6331339;22;20015;-87
2022/10/22 14:40:19;;;;;;;12.38;2.70;;;;;;;;;;6343732;22;20038;-87
2022/10/22 14:42:46;;;;;;;7.38;2.20;;;;;;;;;;6321610;22;20022;-85
2022/10/22 14:45:23;;;;;;;10.80;2.72;;;;;;;;;;6327182;22;20015;-87
2022/10/22 14:47:50;;;;;;;3.63;2.20;;;;;;;;;;6337786;22;20031;-86
2022/10/22 14:50:18;;;;;;;7.60;2.30;;;;;;;;;;6333191;22;20017;-85
2022/10/22 14:52:44;;;;;;;8.38;2.45;;;;;;;;;;6332792;22;20033;-86
2022/10/22 14:55:17;;;;;;;11.93;3.10;;;;;;;;;;6330867;22;20019;-88
2022/10/22 14:57:44;;;;;;;6.38;2.28;;;;;;;;;;6332710;22;20054;-86
2022/10/22 15:00:11;;;;;;;9.60;2.95;;;;;;;;;;6302718;22;20015;-87
2022/10/22 15:02:37;;;;;;;11.35;2.42;;;;;;;;;;6330708;22;20022;-87
2022/10/22 15:05:10;;;;;;;12.10;2.65;;;;;;;;;;6304178;22;20022;-86
2022/10/22 15:07:37;;;;;;;5.38;1.92;;;;;;;;;;6331744;22;20054;-87
2022/10/22 15:10:03;;;;;;;7.28;1.80;;;;;;;;;;6333334;22;20107;-87
2022/10/22 15:12:35;;;;;;;8.48;3.17;;;;;;;;;;6331904;22;20023;-90
2022/10/22 15:15:02;;;;;;;7.53;1.88;;;;;;;;;;6278285;22;20058;-87
2022/10/22 15:17:28;;;;;;;7.57;1.80;;;;;;;;;;6278834;22;20686;-87
2022/10/22 15:20:02;;;;;;;5.95;1.40;;;;;;;;;;6304603;22;20085;-85
2022/10/22 15:22:30;;;;;;;10.55;2.28;;;;;;;;;;6333700;22;20069;-86
2022/10/22 15:24:57;;;;;;;5.75;1.90;;;;;;;;;;6305799;22;20097;-88
2022/10/22 15:27:25;;;;;;;4.10;1.40;;;;;;;;;;6333154;22;20011;-89
2022/10/22 15:29:52;;;;;;;5.95;1.75;;;;;;;;;;6304228;22;20023;-87
2022/10/22 15:32:20;;;;;;;11.00;2.00;;;;;;;;;;6279211;22;20024;-86
2022/10/22 15:34:46;;;;;;;5.82;1.58;;;;;;;;;;6332170;22;20019;-86
2022/10/22 15:37:13;;;;;;;7.85;1.75;;;;;;;;;;6332430;22;20022;-86
2022/10/22 15:39:45;;;;;;;12.20;1.67;;;;;;;;;;6332054;22;20022;-85
2022/10/22 15:42:13;;;;;;;4.53;1.55;;;;;;;;;;6314211;22;20190;-89